createdAt,value
2023-04-15T00:00:13.866Z,28.95
2023-04-15T00:01:13.855Z,29.14
2023-04-15T00:02:13.896Z,28.27
2023-04-15T00:03:14.620Z,26.63
2023-04-15T00:04:13.969Z,30.05
2023-04-15T00:05:13.909Z,29.56
2023-04-15T00:06:13.913Z,29.68
2023-04-15T00:07:13.953Z,28.98
2023-04-15T00:08:13.951Z,28.88
2023-04-15T00:09:13.989Z,29.34
2023-04-15T00:10:14.027Z,29.72
2023-04-15T00:11:14.065Z,28.08
2023-04-15T00:12:14.109Z,29.05
2023-04-15T00:13:14.203Z,30.86
2023-04-15T00:14:14.168Z,27.97
2023-04-15T00:15:14.237Z,30.66
2023-04-15T00:16:14.301Z,31.85
2023-04-15T00:17:14.269Z,32.58
2023-04-15T00:18:14.313Z,28.88
2023-04-15T00:19:14.339Z,29.79
2023-04-15T00:20:14.382Z,29.53
2023-04-15T00:21:14.421Z,28.91
2023-04-15T00:22:14.444Z,28.40
2023-04-15T00:23:14.523Z,30.95
2023-04-15T00:24:14.509Z,30.64
2023-04-15T00:25:14.536Z,30.99
2023-04-15T00:26:14.576Z,28.78
2023-04-15T00:27:14.624Z,28.90
2023-04-15T00:28:14.638Z,30.28
2023-04-15T00:29:14.680Z,29.65
2023-04-15T00:30:14.726Z,31.21
2023-04-15T00:31:14.769Z,30.62
2023-04-15T00:32:14.776Z,29.94
2023-04-15T00:33:14.799Z,30.23
2023-04-15T00:34:14.844Z,29.65
2023-04-15T00:35:14.875Z,27.25
2023-04-15T00:36:14.897Z,27.19
2023-04-15T00:37:14.921Z,28.49
2023-04-15T00:38:14.956Z,29.81
2023-04-15T00:39:15.012Z,28.46
2023-04-15T00:40:15.028Z,25.80
2023-04-15T00:41:15.050Z,29.54
2023-04-15T00:42:15.102Z,31.77
2023-04-15T00:43:15.139Z,30.42
2023-04-15T00:44:15.172Z,26.61
2023-04-15T00:45:15.244Z,25.00
2023-04-15T00:46:15.301Z,29.42
2023-04-15T00:47:15.318Z,25.79
2023-04-15T00:48:15.372Z,28.89
2023-04-15T00:49:15.395Z,30.91
2023-04-15T00:50:15.424Z,30.81
2023-04-15T00:51:15.483Z,30.08
2023-04-15T00:52:15.519Z,29.51
2023-04-15T00:53:15.576Z,26.26
2023-04-15T00:54:15.692Z,29.78
2023-04-15T00:55:15.676Z,27.99
2023-04-15T00:56:15.731Z,27.78
2023-04-15T00:57:15.763Z,26.59
2023-04-15T00:58:15.810Z,26.75
2023-04-15T00:59:15.848Z,29.30
2023-04-15T01:00:15.908Z,29.99
2023-04-15T01:01:15.975Z,29.22
2023-04-15T01:02:16.146Z,28.66
2023-04-15T01:03:16.259Z,26.91
2023-04-15T01:04:16.166Z,29.79
2023-04-15T01:05:16.148Z,30.87
2023-04-15T01:06:16.199Z,29.94
2023-04-15T01:07:16.237Z,26.44
2023-04-15T01:08:16.322Z,27.50
2023-04-15T01:09:16.398Z,29.89
2023-04-15T01:10:16.375Z,28.33
2023-04-15T01:11:16.442Z,29.20
2023-04-15T01:12:16.482Z,28.70
2023-04-15T01:13:16.518Z,28.03
2023-04-15T01:14:16.587Z,28.52
2023-04-15T01:15:16.630Z,25.47
2023-04-15T01:16:16.706Z,30.42
2023-04-15T01:17:16.715Z,30.74
2023-04-15T01:18:16.797Z,27.05
2023-04-15T01:19:16.884Z,27.83
2023-04-15T01:20:16.908Z,27.63
2023-04-15T01:21:16.964Z,29.30
2023-04-15T01:22:16.978Z,27.07
2023-04-15T01:23:17.057Z,29.15
2023-04-15T01:24:17.088Z,27.74
2023-04-15T01:25:17.137Z,27.69
2023-04-15T01:26:17.192Z,28.26
2023-04-15T01:27:17.250Z,27.66
2023-04-15T01:28:17.297Z,27.66
2023-04-15T01:29:17.371Z,27.70
2023-04-15T01:30:17.395Z,28.02
2023-04-15T01:31:17.530Z,27.90
2023-04-15T01:32:17.498Z,27.80
2023-04-15T01:33:17.569Z,27.81
2023-04-15T01:34:17.618Z,28.20
2023-04-15T01:35:17.694Z,28.26
2023-04-15T01:36:17.743Z,28.13
2023-04-15T01:37:17.789Z,27.48
2023-04-15T01:38:17.878Z,27.71
2023-04-15T01:39:17.917Z,30.88
2023-04-15T01:40:17.981Z,29.26
2023-04-15T01:41:18.004Z,29.92
2023-04-15T01:42:18.072Z,29.59
2023-04-15T01:43:18.143Z,28.34
2023-04-15T01:44:18.177Z,29.93
2023-04-15T01:45:18.220Z,31.30
2023-04-15T01:46:18.388Z,28.27
2023-04-15T01:47:18.340Z,30.89
2023-04-15T01:48:18.373Z,29.22
2023-04-15T01:49:18.462Z,28.84
2023-04-15T01:50:18.508Z,28.14
2023-04-15T01:51:18.538Z,26.78
2023-04-15T01:52:18.607Z,28.62
2023-04-15T01:53:18.655Z,29.09
2023-04-15T01:54:18.714Z,25.63
2023-04-15T01:55:18.782Z,29.77
2023-04-15T01:56:18.832Z,27.00
2023-04-15T01:57:18.881Z,29.20
2023-04-15T01:58:18.934Z,29.74
2023-04-15T01:59:19.012Z,30.90
2023-04-15T02:00:19.076Z,29.24
2023-04-15T02:01:19.171Z,32.68
2023-04-15T02:02:19.216Z,29.35
2023-04-15T02:03:19.420Z,29.53
2023-04-15T02:04:19.304Z,29.67
2023-04-15T02:05:19.349Z,29.40
2023-04-15T02:06:19.401Z,27.67
2023-04-15T02:07:19.461Z,30.01
2023-04-15T02:08:19.542Z,26.74
2023-04-15T02:09:19.612Z,29.93
2023-04-15T02:10:19.621Z,29.50
2023-04-15T02:11:19.707Z,30.63
2023-04-15T02:12:19.715Z,30.31
2023-04-15T02:13:19.781Z,28.56
2023-04-15T02:14:19.839Z,30.42
2023-04-15T02:15:19.897Z,27.83
2023-04-15T02:16:19.984Z,30.56
2023-04-15T02:17:20.047Z,26.48
2023-04-15T02:18:20.064Z,28.23
2023-04-15T02:19:20.142Z,31.13
2023-04-15T02:20:20.206Z,29.20
2023-04-15T02:21:20.220Z,28.57
2023-04-15T02:22:20.292Z,29.26
2023-04-15T02:23:20.342Z,29.87
2023-04-15T02:24:20.406Z,27.20
2023-04-15T02:25:20.470Z,26.40
2023-04-15T02:26:20.495Z,29.10
2023-04-15T02:27:20.620Z,28.12
2023-04-15T02:28:20.623Z,29.01
2023-04-15T02:29:20.692Z,30.22
2023-04-15T02:30:20.760Z,28.72
2023-04-15T02:31:20.851Z,28.16
2023-04-15T02:32:20.911Z,28.46
2023-04-15T02:33:20.944Z,29.56
2023-04-15T02:34:20.982Z,28.92
2023-04-15T02:35:21.083Z,27.86
2023-04-15T02:36:21.095Z,28.26
2023-04-15T02:37:21.129Z,29.52
2023-04-15T02:38:21.185Z,28.74
2023-04-15T02:39:21.268Z,27.38
2023-04-15T02:40:21.331Z,28.50
2023-04-15T02:41:21.368Z,25.96
2023-04-15T02:42:21.439Z,27.66
2023-04-15T02:43:21.482Z,27.06
2023-04-15T02:44:21.545Z,26.77
2023-04-15T02:45:21.608Z,28.70
2023-04-15T02:46:21.675Z,28.11
2023-04-15T02:47:21.728Z,29.09
2023-04-15T02:48:21.834Z,27.98
2023-04-15T02:49:21.823Z,27.76
2023-04-15T02:50:21.902Z,29.87
2023-04-15T02:51:21.942Z,26.60
2023-04-15T02:52:22.013Z,27.35
2023-04-15T02:53:22.091Z,31.01
2023-04-15T02:54:22.121Z,26.98
2023-04-15T02:55:22.198Z,30.30
2023-04-15T02:56:22.331Z,27.75
2023-04-15T02:57:22.271Z,27.78
2023-04-15T02:58:22.339Z,29.40
2023-04-15T02:59:22.399Z,27.34
2023-04-15T03:00:22.442Z,31.03
2023-04-15T03:01:22.533Z,29.49
2023-04-15T03:02:22.732Z,27.57
2023-04-15T03:03:22.729Z,32.66
2023-04-15T03:04:22.696Z,30.14
2023-04-15T03:05:22.729Z,28.23
2023-04-15T03:06:22.794Z,29.17
2023-04-15T03:07:22.861Z,28.43
2023-04-15T03:08:22.913Z,29.34
2023-04-15T03:09:22.949Z,27.72
2023-04-15T03:10:23.010Z,29.66
2023-04-15T03:11:23.053Z,28.46
2023-04-15T03:12:23.106Z,27.34
2023-04-15T03:13:23.179Z,29.42
2023-04-15T03:14:23.243Z,28.36
2023-04-15T03:15:23.323Z,29.43
2023-04-15T03:16:23.376Z,27.97
2023-04-15T03:17:23.436Z,28.14
2023-04-15T03:18:23.469Z,28.08
2023-04-15T03:19:23.542Z,27.82
2023-04-15T03:20:23.654Z,26.27
2023-04-15T03:21:23.679Z,30.18
2023-04-15T03:22:23.710Z,28.96
2023-04-15T03:23:23.804Z,29.69
2023-04-15T03:24:23.845Z,31.49
2023-04-15T03:25:23.921Z,28.07
2023-04-15T03:26:23.954Z,27.08
2023-04-15T03:27:24.024Z,31.42
2023-04-15T03:28:24.084Z,29.07
2023-04-15T03:29:24.167Z,27.03
2023-04-15T03:30:24.210Z,27.05
2023-04-15T03:31:24.309Z,30.69
2023-04-15T03:32:24.316Z,28.06
2023-04-15T03:33:24.367Z,30.01
2023-04-15T03:34:24.436Z,26.74
2023-04-15T03:35:24.491Z,30.02
2023-04-15T03:36:24.555Z,32.18
2023-04-15T03:37:24.647Z,30.04
2023-04-15T03:38:24.691Z,27.32
2023-04-15T03:39:24.748Z,28.98
2023-04-15T03:40:24.828Z,27.60
2023-04-15T03:41:24.913Z,30.19
2023-04-15T03:42:24.895Z,28.25
2023-04-15T03:43:24.981Z,31.52
2023-04-15T03:44:25.010Z,30.40
2023-04-15T03:45:25.089Z,28.65
2023-04-15T03:46:25.204Z,28.51
2023-04-15T03:47:25.248Z,29.06
2023-04-15T03:48:25.243Z,28.61
2023-04-15T03:49:25.314Z,29.02
2023-04-15T03:50:25.394Z,30.83
2023-04-15T03:51:25.407Z,29.33
2023-04-15T03:52:25.467Z,28.63
2023-04-15T03:53:25.504Z,30.50
2023-04-15T03:54:25.568Z,29.32
2023-04-15T03:55:25.644Z,31.34
2023-04-15T03:56:25.718Z,30.71
2023-04-15T03:57:25.739Z,28.38
2023-04-15T03:58:25.784Z,27.58
2023-04-15T03:59:25.858Z,28.72
2023-04-15T04:00:25.882Z,28.33
2023-04-15T04:01:25.969Z,30.65
2023-04-15T04:02:26.182Z,29.80
2023-04-15T04:03:26.215Z,31.06
2023-04-15T04:04:26.181Z,28.19
2023-04-15T04:05:26.176Z,30.10
2023-04-15T04:06:26.246Z,29.86
2023-04-15T04:07:26.282Z,27.39
2023-04-15T04:08:26.350Z,30.97
2023-04-15T04:09:26.417Z,28.69
2023-04-15T04:10:26.932Z,28.06
2023-04-15T04:11:27.427Z,30.82
2023-04-15T04:12:26.593Z,30.61
2023-04-15T04:13:26.662Z,25.00
2023-04-15T04:14:26.757Z,30.17
2023-04-15T04:15:26.818Z,28.80
2023-04-15T04:16:26.938Z,28.47
2023-04-15T04:17:26.937Z,28.72
2023-04-15T04:18:26.962Z,32.04
2023-04-15T04:19:27.054Z,29.35
2023-04-15T04:20:27.147Z,30.63
2023-04-15T04:21:27.143Z,30.99
2023-04-15T04:22:27.187Z,29.56
2023-04-15T04:23:27.281Z,30.67
2023-04-15T04:24:27.327Z,28.57
2023-04-15T04:25:27.458Z,30.65
2023-04-15T04:26:27.434Z,31.64
2023-04-15T04:27:27.504Z,27.72
2023-04-15T04:28:27.573Z,26.06
2023-04-15T04:29:27.619Z,29.68
2023-04-15T04:30:27.668Z,28.00
2023-04-15T04:31:27.760Z,29.14
2023-04-15T04:32:27.833Z,28.25
2023-04-15T04:33:27.858Z,30.84
2023-04-15T04:34:27.943Z,27.13
2023-04-15T04:35:27.979Z,29.13
2023-04-15T04:36:28.051Z,26.75
2023-04-15T04:37:28.096Z,29.38
2023-04-15T04:38:28.184Z,28.98
2023-04-15T04:39:28.240Z,26.18
2023-04-15T04:40:28.311Z,27.17
2023-04-15T04:41:28.350Z,33.56
2023-04-15T04:42:28.413Z,27.18
2023-04-15T04:43:28.466Z,26.75
2023-04-15T04:44:28.548Z,28.68
2023-04-15T04:45:28.610Z,29.93
2023-04-15T04:46:28.671Z,26.43
2023-04-15T04:47:28.753Z,27.78
2023-04-15T04:48:28.763Z,27.19
2023-04-15T04:49:28.851Z,27.80
2023-04-15T04:50:28.939Z,28.34
2023-04-15T04:51:28.967Z,26.80
2023-04-15T04:52:29.044Z,31.07
2023-04-15T04:53:29.104Z,27.88
2023-04-15T04:54:29.155Z,28.61
2023-04-15T04:55:29.206Z,26.40
2023-04-15T04:56:29.316Z,28.06
2023-04-15T04:57:29.319Z,29.81
2023-04-15T04:58:29.415Z,28.98
2023-04-15T04:59:29.496Z,28.93
2023-04-15T05:00:29.531Z,26.06
2023-04-15T05:01:29.653Z,29.92
2023-04-15T05:02:29.767Z,27.16
2023-04-15T05:03:29.807Z,29.88
2023-04-15T05:04:29.771Z,27.65
2023-04-15T05:05:29.851Z,28.53
2023-04-15T05:06:29.912Z,31.39
2023-04-15T05:07:29.960Z,31.66
2023-04-15T05:08:30.021Z,29.23
2023-04-15T05:09:30.074Z,30.29
2023-04-15T05:10:30.196Z,28.18
2023-04-15T05:11:30.205Z,29.53
2023-04-15T05:12:30.295Z,27.83
2023-04-15T05:13:30.324Z,29.82
2023-04-15T05:14:30.401Z,27.80
2023-04-15T05:15:30.499Z,29.60
2023-04-15T05:16:30.541Z,27.66
2023-04-15T05:17:30.619Z,29.11
2023-04-15T05:18:30.619Z,25.90
2023-04-15T05:19:30.693Z,27.94
2023-04-15T05:20:30.750Z,26.92
2023-04-15T05:21:30.817Z,32.89
2023-04-15T05:22:30.857Z,27.63
2023-04-15T05:23:30.925Z,27.54
2023-04-15T05:24:30.992Z,25.81
2023-04-15T05:25:31.042Z,29.35
2023-04-15T05:26:31.112Z,28.12
2023-04-15T05:27:31.149Z,28.62
2023-04-15T05:28:31.222Z,26.35
2023-04-15T05:29:31.296Z,28.88
2023-04-15T05:30:31.326Z,27.44
2023-04-15T05:31:31.514Z,30.30
2023-04-15T05:32:31.525Z,27.83
2023-04-15T05:33:31.509Z,27.75
2023-04-15T05:34:31.623Z,28.90
2023-04-15T05:35:31.646Z,27.23
2023-04-15T05:36:31.669Z,26.49
2023-04-15T05:37:31.733Z,29.50
2023-04-15T05:38:31.803Z,28.31
2023-04-15T05:39:31.871Z,29.31
2023-04-15T05:40:31.951Z,28.49
2023-04-15T05:41:31.983Z,31.39
2023-04-15T05:42:32.046Z,29.88
2023-04-15T05:43:32.113Z,27.51
2023-04-15T05:44:32.197Z,29.70
2023-04-15T05:45:32.236Z,26.48
2023-04-15T05:46:32.369Z,31.49
2023-04-15T05:47:32.392Z,30.74
2023-04-15T05:48:32.456Z,30.02
2023-04-15T05:49:32.474Z,31.66
2023-04-15T05:50:32.574Z,27.25
2023-04-15T05:51:32.602Z,28.21
2023-04-15T05:52:32.700Z,29.13
2023-04-15T05:53:32.726Z,27.80
2023-04-15T05:54:32.855Z,28.40
2023-04-15T05:55:32.855Z,25.00
2023-04-15T05:56:32.963Z,28.82
2023-04-15T05:57:32.981Z,28.20
2023-04-15T05:58:33.055Z,29.30
2023-04-15T05:59:33.126Z,27.10
2023-04-15T06:00:33.165Z,28.69
2023-04-15T06:01:33.233Z,25.47
2023-04-15T06:02:33.417Z,30.26
2023-04-15T06:03:33.559Z,26.78
2023-04-15T06:04:33.519Z,28.56
2023-04-15T06:05:33.465Z,27.62
2023-04-15T06:06:33.530Z,27.31
2023-04-15T06:07:33.563Z,30.62
2023-04-15T06:08:33.618Z,28.11
2023-04-15T06:09:33.699Z,29.42
2023-04-15T06:10:33.748Z,27.39
2023-04-15T06:11:33.796Z,28.73
2023-04-15T06:12:33.848Z,26.11
2023-04-15T06:13:33.854Z,29.82
2023-04-15T06:14:33.872Z,26.61
2023-04-15T06:15:33.916Z,30.16
2023-04-15T06:16:34.005Z,27.59
2023-04-15T06:17:33.981Z,28.90
2023-04-15T06:18:33.978Z,28.68
2023-04-15T06:19:34.051Z,29.71
2023-04-15T06:20:34.057Z,28.65
2023-04-15T06:21:34.089Z,27.63
2023-04-15T06:22:34.115Z,26.44
2023-04-15T06:23:34.143Z,29.29
2023-04-15T06:24:34.196Z,29.61
2023-04-15T06:25:34.221Z,29.67
2023-04-15T06:26:34.262Z,30.23
2023-04-15T06:27:34.303Z,27.03
2023-04-15T06:28:34.345Z,30.06
2023-04-15T06:29:34.396Z,28.17
2023-04-15T06:30:34.424Z,32.77
2023-04-15T06:31:34.534Z,27.65
2023-04-15T06:32:34.533Z,29.48
2023-04-15T06:33:34.506Z,28.09
2023-04-15T06:34:34.580Z,27.40
2023-04-15T06:35:34.544Z,27.00
2023-04-15T06:36:34.610Z,26.21
2023-04-15T06:37:34.584Z,30.46
2023-04-15T06:38:34.594Z,28.81
2023-04-15T06:39:34.667Z,28.59
2023-04-15T06:40:34.609Z,26.89
2023-04-15T06:41:34.656Z,29.39
2023-04-15T06:42:34.660Z,30.31
2023-04-15T06:43:34.696Z,27.91
2023-04-15T06:44:34.699Z,29.70
2023-04-15T06:45:34.763Z,28.67
2023-04-15T06:46:34.785Z,30.22
2023-04-15T06:47:34.796Z,26.01
2023-04-15T06:48:34.860Z,29.92
2023-04-15T06:49:34.808Z,29.26
2023-04-15T06:50:34.848Z,29.12
2023-04-15T06:51:34.906Z,28.49
2023-04-15T06:52:34.917Z,25.59
2023-04-15T06:53:34.935Z,27.22
2023-04-15T06:54:34.962Z,29.46
2023-04-15T06:55:35.006Z,29.14
2023-04-15T06:56:35.060Z,31.38
2023-04-15T06:57:35.316Z,31.44
2023-04-15T06:58:35.148Z,27.28
2023-04-15T06:59:35.206Z,29.14
2023-04-15T07:00:35.263Z,25.40
2023-04-15T07:01:35.384Z,30.79
2023-04-15T07:02:35.470Z,26.84
2023-04-15T07:03:35.444Z,30.16
2023-04-15T07:04:35.557Z,28.27
2023-04-15T07:05:35.571Z,27.93
2023-04-15T07:06:35.653Z,28.43
2023-04-15T07:07:35.672Z,28.39
2023-04-15T07:08:35.761Z,27.46
2023-04-15T07:09:35.806Z,26.82
2023-04-15T07:10:35.879Z,32.16
2023-04-15T07:11:35.914Z,29.61
2023-04-15T07:12:35.977Z,28.61
2023-04-15T07:13:36.044Z,29.67
2023-04-15T07:14:36.122Z,28.79
2023-04-15T07:15:36.158Z,30.12
2023-04-15T07:16:36.225Z,31.05
2023-04-15T07:17:36.292Z,30.38
2023-04-15T07:18:36.343Z,27.54
2023-04-15T07:19:36.376Z,27.45
2023-04-15T07:20:36.443Z,28.31
2023-04-15T07:21:36.512Z,28.23
2023-04-15T07:22:36.560Z,29.37
2023-04-15T07:23:36.651Z,28.55
2023-04-15T07:24:36.660Z,26.07
2023-04-15T07:25:36.716Z,26.49
2023-04-15T07:26:36.785Z,27.80
2023-04-15T07:27:36.866Z,29.45
2023-04-15T07:28:36.892Z,28.80
2023-04-15T07:29:36.950Z,28.89
2023-04-15T07:30:37.037Z,30.66
2023-04-15T07:31:37.157Z,26.93
2023-04-15T07:32:37.200Z,30.00
2023-04-15T07:33:37.241Z,27.25
2023-04-15T07:34:37.249Z,29.34
2023-04-15T07:35:37.310Z,29.49
2023-04-15T07:36:37.379Z,28.88
2023-04-15T07:37:37.473Z,28.89
2023-04-15T07:38:37.469Z,27.35
2023-04-15T07:39:37.584Z,30.29
2023-04-15T07:40:37.618Z,29.75
2023-04-15T07:41:37.680Z,32.36
2023-04-15T07:42:39.408Z,30.45
2023-04-15T07:43:37.710Z,32.94
2023-04-15T07:44:37.700Z,31.15
2023-04-15T07:45:37.708Z,28.28
2023-04-15T07:46:37.805Z,28.17
2023-04-15T07:47:37.692Z,31.84
2023-04-15T07:48:37.819Z,28.56
2023-04-15T07:49:37.657Z,27.62
2023-04-15T07:50:37.646Z,30.19
2023-04-15T07:51:37.667Z,28.70
2023-04-15T07:52:37.683Z,28.06
2023-04-15T07:53:37.666Z,27.63
2023-04-15T07:54:37.620Z,27.16
2023-04-15T07:55:37.635Z,28.68
2023-04-15T07:56:37.631Z,29.05
2023-04-15T07:57:37.627Z,29.71
2023-04-15T07:58:37.599Z,29.72
2023-04-15T07:59:37.615Z,27.36
2023-04-15T08:00:37.592Z,27.42
2023-04-15T08:01:37.627Z,29.05
2023-04-15T08:02:40.204Z,28.84
2023-04-15T08:03:37.766Z,28.88
2023-04-15T08:04:37.818Z,29.01
2023-04-15T08:05:37.582Z,29.18
2023-04-15T08:06:37.597Z,29.33
2023-04-15T08:07:37.575Z,28.36
2023-04-15T08:08:37.620Z,28.62
2023-04-15T08:09:37.555Z,26.92
2023-04-15T08:10:37.539Z,28.82
2023-04-15T08:11:37.520Z,27.40
2023-04-15T08:12:37.560Z,30.27
2023-04-15T08:13:37.506Z,29.39
2023-04-15T08:14:37.497Z,30.69
2023-04-15T08:15:37.511Z,31.57
2023-04-15T08:16:37.606Z,29.76
2023-04-15T08:17:37.618Z,28.54
2023-04-15T08:18:37.478Z,27.12
2023-04-15T08:19:37.468Z,27.81
2023-04-15T08:20:37.479Z,32.16
2023-04-15T08:21:37.464Z,25.97
2023-04-15T08:22:37.448Z,30.59
2023-04-15T08:23:37.433Z,31.06
2023-04-15T08:24:37.426Z,29.82
2023-04-15T08:25:37.509Z,32.88
2023-04-15T08:26:37.415Z,33.18
2023-04-15T08:27:37.404Z,31.32
2023-04-15T08:28:37.390Z,28.69
2023-04-15T08:29:37.382Z,31.47
2023-04-15T08:30:37.374Z,29.73
2023-04-15T08:31:37.426Z,27.76
2023-04-15T08:32:37.422Z,26.20
2023-04-15T08:33:37.366Z,33.16
2023-04-15T08:34:37.340Z,29.00
2023-04-15T08:35:37.329Z,28.64
2023-04-15T08:36:37.342Z,30.95
2023-04-15T08:37:37.347Z,31.75
2023-04-15T08:38:37.353Z,28.17
2023-04-15T08:39:37.345Z,30.56
2023-04-15T08:40:37.348Z,26.87
2023-04-15T08:41:37.384Z,34.95
2023-04-15T08:42:37.469Z,32.98
2023-04-15T08:43:37.537Z,29.84
2023-04-15T08:44:37.636Z,28.98
2023-04-15T08:45:37.665Z,26.79
2023-04-15T08:46:37.753Z,26.37
2023-04-15T08:47:37.809Z,31.22
2023-04-15T08:48:37.821Z,29.55
2023-04-15T08:49:37.892Z,28.90
2023-04-15T08:50:37.943Z,29.12
2023-04-15T08:51:38.013Z,27.24
2023-04-15T08:52:38.060Z,25.83
2023-04-15T08:53:38.166Z,27.57
2023-04-15T08:54:38.167Z,28.35
2023-04-15T08:55:38.233Z,28.88
2023-04-15T08:56:38.329Z,29.06
2023-04-15T08:57:38.361Z,28.98
2023-04-15T08:58:38.398Z,30.52
2023-04-15T08:59:38.473Z,27.92
2023-04-15T09:00:38.493Z,29.60
2023-04-15T09:01:38.685Z,28.11
2023-04-15T09:02:38.781Z,29.26
2023-04-15T09:03:38.748Z,25.13
2023-04-15T09:04:38.721Z,27.54
2023-04-15T09:05:38.909Z,30.65
2023-04-15T09:06:38.863Z,29.64
2023-04-15T09:07:38.938Z,29.97
2023-04-15T09:08:38.949Z,28.27
2023-04-15T09:09:39.016Z,28.94
2023-04-15T09:10:39.072Z,29.66
2023-04-15T09:11:39.131Z,28.58
2023-04-15T09:12:39.172Z,28.29
2023-04-15T09:13:39.257Z,30.01
2023-04-15T09:14:39.313Z,29.56
2023-04-15T09:15:39.332Z,32.77
2023-04-15T09:16:39.449Z,30.19
2023-04-15T09:17:39.516Z,29.90
2023-04-15T09:18:39.546Z,27.61
2023-04-15T09:19:40.552Z,31.26
2023-04-15T09:20:39.595Z,28.43
2023-04-15T09:21:39.663Z,31.15
2023-04-15T09:22:39.734Z,30.50
2023-04-15T09:23:39.813Z,30.66
2023-04-15T09:24:39.817Z,31.90
2023-04-15T09:25:39.873Z,29.86
2023-04-15T09:26:39.942Z,29.50
2023-04-15T09:27:39.973Z,31.35
2023-04-15T09:28:40.054Z,28.56
2023-04-15T09:29:40.112Z,29.37
2023-04-15T09:30:40.173Z,29.82
2023-04-15T09:31:40.205Z,30.71
2023-04-15T09:32:40.273Z,29.09
2023-04-15T09:33:40.309Z,31.13
2023-04-15T09:34:40.357Z,29.13
2023-04-15T09:35:40.575Z,30.31
2023-04-15T09:36:40.533Z,28.95
2023-04-15T09:37:40.519Z,29.68
2023-04-15T09:38:40.582Z,28.74
2023-04-15T09:39:40.644Z,29.59
2023-04-15T09:40:40.666Z,28.53
2023-04-15T09:41:40.697Z,28.78
2023-04-15T09:42:40.763Z,29.55
2023-04-15T09:43:40.828Z,29.16
2023-04-15T09:44:40.830Z,30.00
2023-04-15T09:45:40.912Z,29.47
2023-04-15T09:46:40.930Z,30.53
2023-04-15T09:47:41.014Z,31.21
2023-04-15T09:48:41.024Z,29.17
2023-04-15T09:49:41.125Z,29.50
2023-04-15T09:50:41.108Z,32.59
2023-04-15T09:51:42.190Z,31.26
2023-04-15T09:52:41.206Z,30.95
2023-04-15T09:53:41.267Z,29.70
2023-04-15T09:54:41.268Z,30.61
2023-04-15T09:55:41.303Z,32.56
2023-04-15T09:56:41.359Z,30.77
2023-04-15T09:57:41.403Z,31.32
2023-04-15T09:58:41.476Z,32.19
2023-04-15T09:59:41.488Z,33.11
2023-04-15T10:00:41.556Z,31.17
2023-04-15T10:01:41.609Z,31.37
2023-04-15T10:02:41.714Z,32.24
2023-04-15T10:03:41.841Z,33.19
2023-04-15T10:04:41.843Z,32.39
2023-04-15T10:05:41.810Z,31.80
2023-04-15T10:06:41.820Z,33.42
2023-04-15T10:07:41.845Z,34.86
2023-04-15T10:08:41.943Z,33.73
2023-04-15T10:09:42.003Z,31.01
2023-04-15T10:10:41.993Z,34.92
2023-04-15T10:11:42.017Z,31.97
2023-04-15T10:12:42.100Z,32.82
2023-04-15T10:13:42.128Z,31.86
2023-04-15T10:14:42.164Z,32.28
2023-04-15T10:15:42.263Z,31.22
2023-04-15T10:16:42.234Z,31.44
2023-04-15T10:17:42.273Z,33.25
2023-04-15T10:18:42.294Z,30.04
2023-04-15T10:19:42.342Z,30.14
2023-04-15T10:20:42.384Z,34.22
2023-04-15T10:21:42.451Z,32.39
2023-04-15T10:22:42.453Z,30.63
2023-04-15T10:23:42.518Z,32.23
2023-04-15T10:24:42.557Z,31.87
2023-04-15T10:25:42.582Z,34.54
2023-04-15T10:26:42.642Z,32.67
2023-04-15T10:27:42.664Z,34.05
2023-04-15T10:28:42.724Z,31.93
2023-04-15T10:29:42.771Z,37.68
2023-04-15T10:30:42.819Z,31.94
2023-04-15T10:31:42.860Z,31.90
2023-04-15T10:32:43.021Z,33.23
2023-04-15T10:33:42.936Z,34.78
2023-04-15T10:34:43.007Z,32.24
2023-04-15T10:35:43.022Z,32.08
2023-04-15T10:36:43.120Z,32.03
2023-04-15T10:37:43.114Z,31.11
2023-04-15T10:38:43.174Z,29.87
2023-04-15T10:39:43.394Z,33.27
2023-04-15T10:40:43.267Z,32.65
2023-04-15T10:41:43.310Z,30.48
2023-04-15T10:42:43.364Z,32.12
2023-04-15T10:43:43.411Z,32.61
2023-04-15T10:44:43.464Z,31.80
2023-04-15T10:45:43.486Z,32.78
2023-04-15T10:46:43.579Z,30.65
2023-04-15T10:47:43.664Z,33.07
2023-04-15T10:48:43.616Z,30.58
2023-04-15T10:49:43.691Z,33.09
2023-04-15T10:50:43.707Z,34.47
2023-04-15T10:51:43.779Z,31.85
2023-04-15T10:52:43.801Z,31.98
2023-04-15T10:53:43.837Z,31.78
2023-04-15T10:54:43.873Z,28.30
2023-04-15T10:55:43.957Z,32.47
2023-04-15T10:56:43.976Z,32.46
2023-04-15T10:57:44.013Z,29.76
2023-04-15T10:58:44.066Z,35.13
2023-04-15T10:59:44.130Z,30.33
2023-04-15T11:00:44.151Z,33.65
2023-04-15T11:01:44.252Z,33.05
2023-04-15T11:02:44.482Z,30.99
2023-04-15T11:03:44.422Z,30.78
2023-04-15T11:04:44.427Z,32.52
2023-04-15T11:05:44.443Z,33.07
2023-04-15T11:06:44.421Z,32.67
2023-04-15T11:07:44.495Z,32.79
2023-04-15T11:08:44.550Z,33.77
2023-04-15T11:09:44.574Z,29.95
2023-04-15T11:10:44.638Z,30.65
2023-04-15T11:11:45.493Z,32.96
2023-04-15T11:12:44.732Z,30.27
2023-04-15T11:13:44.752Z,31.46
2023-04-15T11:14:44.816Z,31.48
2023-04-15T11:15:44.895Z,31.87
2023-04-15T11:16:45.067Z,31.80
2023-04-15T11:17:46.488Z,30.99
2023-04-15T11:18:44.993Z,31.32
2023-04-15T11:19:45.064Z,34.56
2023-04-15T11:20:45.085Z,31.61
2023-04-15T11:21:45.152Z,31.92
2023-04-15T11:22:45.222Z,29.23
2023-04-15T11:23:45.232Z,31.04
2023-04-15T11:24:45.279Z,32.53
2023-04-15T11:25:45.328Z,31.13
2023-04-15T11:26:45.375Z,32.54
2023-04-15T11:27:45.451Z,30.36
2023-04-15T11:28:45.480Z,30.61
2023-04-15T11:29:45.552Z,32.58
2023-04-15T11:30:45.641Z,30.96
2023-04-15T11:31:45.717Z,33.59
2023-04-15T11:32:45.777Z,30.71
2023-04-15T11:33:45.765Z,33.28
2023-04-15T11:34:45.826Z,33.13
2023-04-15T11:35:45.859Z,34.37
2023-04-15T11:36:45.925Z,33.22
2023-04-15T11:37:45.987Z,32.48
2023-04-15T11:38:46.026Z,31.14
2023-04-15T11:39:46.110Z,32.24
2023-04-15T11:40:47.249Z,35.00
2023-04-15T11:41:46.180Z,33.40
2023-04-15T11:42:49.926Z,34.19
2023-04-15T11:43:46.227Z,34.32
2023-04-15T11:44:46.248Z,34.45
2023-04-15T11:45:46.245Z,32.61
2023-04-15T11:46:46.192Z,32.11
2023-04-15T11:47:46.254Z,36.18
2023-04-15T11:48:46.227Z,32.65
2023-04-15T11:49:46.197Z,29.32
2023-04-15T11:50:46.302Z,34.95
2023-04-15T11:51:46.175Z,31.35
2023-04-15T11:52:46.201Z,34.58
2023-04-15T11:53:46.255Z,31.52
2023-04-15T11:54:46.208Z,30.12
2023-04-15T11:55:46.131Z,34.49
2023-04-15T11:56:46.122Z,31.12
2023-04-15T11:57:46.134Z,32.84
2023-04-15T11:58:46.183Z,34.04
2023-04-15T11:59:46.347Z,31.38
2023-04-15T12:00:46.147Z,33.26
2023-04-15T12:01:46.189Z,32.48
2023-04-15T12:02:46.137Z,31.29
2023-04-15T12:03:46.246Z,32.85
2023-04-15T12:04:46.129Z,34.30
2023-04-15T12:05:46.090Z,32.49
2023-04-15T12:06:46.048Z,32.70
2023-04-15T12:07:46.082Z,33.41
2023-04-15T12:08:46.103Z,34.32
2023-04-15T12:09:46.117Z,29.53
2023-04-15T12:10:46.186Z,35.53
2023-04-15T12:11:46.243Z,33.96
2023-04-15T12:12:46.324Z,30.76
2023-04-15T12:13:46.322Z,35.12
2023-04-15T12:14:46.391Z,35.45
2023-04-15T12:15:46.510Z,32.54
2023-04-15T12:16:48.657Z,37.05
2023-04-15T12:17:51.868Z,38.53
2023-04-15T12:18:47.481Z,38.79
2023-04-15T12:19:46.477Z,38.61
2023-04-15T12:20:46.464Z,37.37
2023-04-15T12:21:46.440Z,35.82
2023-04-15T12:22:46.490Z,37.57
2023-04-15T12:23:46.484Z,38.40
2023-04-15T12:24:46.421Z,35.16
2023-04-15T12:25:46.445Z,36.49
2023-04-15T12:26:46.434Z,37.63
2023-04-15T12:27:46.487Z,36.32
2023-04-15T12:28:46.518Z,36.49
2023-04-15T12:29:46.599Z,35.02
2023-04-15T12:30:46.629Z,36.94
2023-04-15T12:31:46.818Z,39.81
2023-04-15T12:32:46.778Z,37.24
2023-04-15T12:33:46.801Z,36.85
2023-04-15T12:34:46.900Z,39.04
2023-04-15T12:35:46.910Z,36.51
2023-04-15T12:36:46.942Z,34.50
2023-04-15T12:37:47.006Z,36.72
2023-04-15T12:38:47.050Z,35.99
2023-04-15T12:39:47.112Z,37.29
2023-04-15T12:40:47.598Z,35.90
2023-04-15T12:41:47.206Z,38.08
2023-04-15T12:42:47.255Z,39.12
2023-04-15T12:43:47.301Z,37.77
2023-04-15T12:44:47.389Z,36.86
2023-04-15T12:45:47.436Z,37.46
2023-04-15T12:46:47.498Z,38.72
2023-04-15T12:47:47.530Z,38.17
2023-04-15T12:48:47.583Z,39.27
2023-04-15T12:49:47.643Z,36.97
2023-04-15T12:50:47.686Z,37.70
2023-04-15T12:51:47.718Z,37.37
2023-04-15T12:52:47.793Z,33.28